Time;durP1;ratioP1;P1;durP2;ratioP2;P2;SDS_P1;SDS_P2;PMS_P1;PMS_P2;Temp;Humidity;BMP_temperature;BMP_pressure;BME280_temperature;BME280_humidity;BME280_pressure;Samples;Min_cycle;Max_cycle;Signal;HPM_P1;HPM_P2
2023/01/07 00:01:08;;;;;;;2.78;2.08;;;10.90;99.90;;;;;;5038462;28;20037;-61
2023/01/07 00:03:34;;;;;;;3.28;2.20;;;10.80;99.90;;;;;;5043537;28;20115;-61
2023/01/07 00:06:01;;;;;;;4.10;2.58;;;10.70;99.90;;;;;;5043623;28;20037;-60
2023/01/07 00:08:35;;;;;;;4.65;2.30;;;10.80;99.90;;;;;;5042994;28;20033;-61
2023/01/07 00:11:02;;;;;;;3.13;2.10;;;10.70;99.90;;;;;;5006315;28;20033;-61
2023/01/07 00:13:28;;;;;;;2.85;2.15;;;10.70;99.90;;;;;;5041929;28;20025;-61
2023/01/07 00:16:01;;;;;;;3.28;2.25;;;10.60;99.90;;;;;;5042212;28;20124;-61
2023/01/07 00:18:27;;;;;;;;;;;10.60;99.90;;;;;;5041537;28;20036;-61
2023/01/07 00:20:56;;;;;;;3.35;2.10;;;10.50;99.90;;;;;;5043193;28;20359;-61
2023/01/07 00:23:23;;;;;;;2.97;2.10;;;10.50;99.90;;;;;;5043040;28;20090;-61
2023/01/07 00:25:49;;;;;;;3.47;2.17;;;10.50;99.90;;;;;;5041936;28;20100;-61
2023/01/07 00:28:15;;;;;;;4.38;2.33;;;10.50;99.90;;;;;;5042556;28;20998;-61
2023/01/07 00:30:40;;;;;;;2.58;2.13;;;10.50;99.90;;;;;;5043456;28;20057;-61
2023/01/07 00:33:06;;;;;;;2.22;2.00;;;10.50;99.90;;;;;;5042821;28;20479;-61
2023/01/07 00:35:33;;;;;;;3.15;2.47;;;10.50;99.90;;;;;;5042504;28;20036;-60
2023/01/07 00:37:58;;;;;;;5.15;2.28;;;10.50;99.90;;;;;;5043596;28;20032;-61
2023/01/07 00:40:24;;;;;;;3.97;2.30;;;10.60;99.90;;;;;;5040386;28;20041;-61
2023/01/07 00:43:03;;;;;;;2.83;2.42;;;10.60;99.90;;;;;;5043531;28;20115;-61
2023/01/07 00:45:35;;;;;;;3.55;2.28;;;10.70;99.90;;;;;;5039791;28;20442;-61
2023/01/07 00:48:03;;;;;;;2.95;2.05;;;10.60;99.90;;;;;;5041321;28;20041;-61
2023/01/07 00:50:31;;;;;;;4.32;2.10;;;10.60;99.90;;;;;;5038398;28;20033;-61
2023/01/07 00:52:57;;;;;;;3.47;2.10;;;10.60;99.90;;;;;;5038987;28;20029;-61
2023/01/07 00:55:23;;;;;;;3.40;2.15;;;10.50;99.90;;;;;;5042546;28;20429;-61
2023/01/07 00:57:49;;;;;;;4.38;2.35;;;10.50;99.90;;;;;;5042832;28;20040;-61
2023/01/07 01:00:16;;;;;;;3.63;2.47;;;10.60;99.90;;;;;;5043337;28;20043;-62
2023/01/07 01:02:42;;;;;;;4.32;2.60;;;10.70;99.90;;;;;;5042805;28;20083;-62
2023/01/07 01:05:08;;;;;;;3.20;2.28;;;10.70;99.90;;;;;;5042382;28;20032;-61
2023/01/07 01:07:34;;;;;;;4.00;2.30;;;10.70;99.90;;;;;;5043205;28;20029;-62
2023/01/07 01:10:00;;;;;;;5.97;2.70;;;10.70;99.90;;;;;;5044730;28;20141;-61
2023/01/07 01:12:26;;;;;;;7.00;3.17;;;10.70;99.90;;;;;;5042015;28;20091;-61
2023/01/07 01:14:52;;;;;;;4.50;2.60;;;10.60;99.90;;;;;;5042746;28;20044;-61
2023/01/07 01:17:18;;;;;;;6.25;2.47;;;10.50;99.90;;;;;;5041728;28;20416;-61
2023/01/07 01:19:43;;;;;;;4.93;2.97;;;10.50;99.90;;;;;;5041982;28;20051;-61
2023/01/07 01:22:09;;;;;;;4.97;3.25;;;10.40;99.90;;;;;;5046374;28;20068;-61
2023/01/07 01:24:34;;;;;;;8.32;3.47;;;10.40;99.90;;;;;;5050124;28;20048;-62
2023/01/07 01:27:00;;;;;;;6.63;3.28;;;10.50;99.90;;;;;;5048541;28;20075;-61
2023/01/07 01:29:25;;;;;;;5.90;2.80;;;10.50;99.90;;;;;;5044525;28;20072;-61
2023/01/07 01:31:51;;;;;;;6.82;4.15;;;10.50;99.90;;;;;;5046443;28;20040;-61
2023/01/07 01:34:17;;;;;;;6.15;3.65;;;10.50;99.90;;;;;;5025770;28;20741;-62
2023/01/07 01:36:42;;;;;;;3.05;2.05;;;10.60;99.90;;;;;;5045566;28;20036;-61
2023/01/07 01:39:08;;;;;;;4.43;2.10;;;10.60;99.90;;;;;;5047777;28;20029;-61
2023/01/07 01:41:34;;;;;;;2.28;1.88;;;10.60;99.90;;;;;;5043771;28;20025;-62
2023/01/07 01:44:00;;;;;;;2.80;1.63;;;10.70;99.90;;;;;;5046280;28;20029;-61
2023/01/07 01:46:40;;;;;;;4.22;1.85;;;10.70;99.90;;;;;;5045477;28;20155;-61
2023/01/07 01:49:21;;;;;;;4.03;2.03;;;10.70;99.90;;;;;;5044830;28;20524;-61
2023/01/07 01:51:56;;;;;;;2.78;1.92;;;10.70;99.90;;;;;;5045894;28;20119;-61
2023/01/07 01:54:23;;;;;;;2.55;2.00;;;10.70;99.90;;;;;;5045567;28;20086;-60
2023/01/07 01:56:52;;;;;;;2.35;1.70;;;10.70;99.90;;;;;;5043617;28;20056;-61
2023/01/07 01:59:23;;;;;;;4.82;1.80;;;10.70;99.90;;;;;;5041067;28;20072;-61
2023/01/07 02:01:50;;;;;;;4.05;1.90;;;10.70;99.90;;;;;;5043321;28;20029;-60
2023/01/07 02:04:19;;;;;;;3.17;1.77;;;10.70;99.90;;;;;;5045331;28;20083;-61
2023/01/07 02:06:57;;;;;;;5.07;1.80;;;10.70;99.90;;;;;;5045983;28;20120;-61
2023/01/07 02:09:22;;;;;;;6.45;1.95;;;10.70;99.90;;;;;;5041733;28;20479;-61
2023/01/07 02:12:03;;;;;;;3.30;1.80;;;10.70;99.90;;;;;;5043791;28;20031;-62
2023/01/07 02:14:44;;;;;;;3.53;1.67;;;10.70;99.90;;;;;;5043941;28;20025;-61
2023/01/07 02:17:24;;;;;;;2.80;1.30;;;10.70;99.90;;;;;;5046638;28;20028;-62
2023/01/07 02:20:23;;;;;;;2.03;1.35;;;10.70;99.90;;;;;;5044626;28;20087;-60
2023/01/07 02:23:34;;;;;;;2.83;1.38;;;10.70;99.90;;;;;;5016886;28;20036;-61
2023/01/07 02:26:24;;;;;;;2.30;1.50;;;10.70;99.90;;;;;;5041334;28;20039;-61
2023/01/07 02:29:27;;;;;;;2.58;1.30;;;10.70;99.90;;;;;;5044305;28;20094;-61
2023/01/07 02:32:11;;;;;;;4.88;1.67;;;10.70;99.90;;;;;;5042658;28;20064;-60
2023/01/07 02:34:55;;;;;;;4.25;1.45;;;10.80;99.90;;;;;;5042927;28;20033;-61
2023/01/07 02:37:36;;;;;;;3.85;1.33;;;10.80;99.90;;;;;;5044528;28;20180;-61
2023/01/07 02:40:26;;;;;;;3.88;1.40;;;10.80;99.90;;;;;;5042074;28;20176;-61
2023/01/07 02:43:25;;;;;;;2.47;1.08;;;10.80;99.90;;;;;;5045182;28;20480;-61
2023/01/07 02:46:04;;;;;;;2.42;1.23;;;10.70;99.90;;;;;;5045493;28;20112;-61
2023/01/07 02:48:32;;;;;;;2.88;1.38;;;10.70;99.90;;;;;;5043382;28;20025;-61
2023/01/07 02:50:57;;;;;;;5.10;1.48;;;10.70;99.90;;;;;;5047013;28;20052;-61
2023/01/07 02:53:23;;;;;;;3.65;1.45;;;10.80;99.90;;;;;;5045366;28;20068;-61
2023/01/07 02:56:11;;;;;;;4.50;1.30;;;10.70;99.90;;;;;;5043305;28;20067;-61
2023/01/07 02:58:55;;;;;;;4.93;1.10;;;10.80;99.90;;;;;;5037335;28;20392;-60
2023/01/07 03:01:36;;;;;;;2.90;1.30;;;10.80;99.90;;;;;;5044017;28;20068;-62
2023/01/07 03:04:05;;;;;;;2.33;1.20;;;11.00;99.90;;;;;;5042841;28;20499;-61
2023/01/07 03:06:53;;;;;;;2.72;1.98;;;10.90;99.90;;;;;;5045054;28;20496;-62
2023/01/07 03:09:21;;;;;;;2.83;1.30;;;10.90;99.90;;;;;;5002534;28;20061;-61
2023/01/07 03:12:07;;;;;;;5.43;1.20;;;10.90;99.90;;;;;;5018911;28;20552;-61
2023/01/07 03:14:49;;;;;;;2.78;1.20;;;10.80;99.90;;;;;;5022867;28;20509;-61
2023/01/07 03:17:19;;;;;;;2.53;1.20;;;10.80;99.90;;;;;;5040265;28;20037;-61
2023/01/07 03:19:49;;;;;;;2.58;1.20;;;10.80;99.90;;;;;;5019840;28;20053;-62
2023/01/07 03:22:18;;;;;;;3.47;1.10;;;10.80;99.90;;;;;;5023875;28;20029;-61
2023/01/07 03:24:47;;;;;;;3.70;1.20;;;10.80;99.90;;;;;;5022895;28;20124;-62
2023/01/07 03:27:15;;;;;;;3.78;1.50;;;10.80;99.90;;;;;;5026329;28;20072;-62
2023/01/07 03:29:41;;;;;;;2.28;1.10;;;10.80;99.90;;;;;;5027871;28;20044;-60
2023/01/07 03:32:15;;;;;;;4.00;1.20;;;10.90;99.90;;;;;;5022344;28;20578;-60
2023/01/07 03:34:42;;;;;;;2.20;1.20;;;11.00;99.90;;;;;;5024870;28;20029;-61
2023/01/07 03:37:14;;;;;;;3.13;1.00;;;10.80;99.90;;;;;;5023907;28;20057;-61
2023/01/07 03:39:42;;;;;;;3.17;1.13;;;10.90;99.90;;;;;;5023381;28;20076;-61
2023/01/07 03:44:54;;;;;;;1.95;1.10;;;10.90;99.90;;;;;;5023717;28;20164;-61
2023/01/07 03:47:20;;;;;;;1.80;0.88;;;11.00;99.90;;;;;;5024590;28;20053;-61
2023/01/07 03:49:45;;;;;;;3.28;1.20;;;10.90;99.90;;;;;;5004794;28;20039;-61
2023/01/07 03:52:11;;;;;;;2.13;1.10;;;10.60;99.90;;;;;;5022697;28;20026;-62
2023/01/07 03:54:37;;;;;;;1.67;0.80;;;10.50;99.90;;;;;;5021203;28;20028;-62
2023/01/07 03:57:02;;;;;;;1.48;0.80;;;10.50;99.90;;;;;;5023730;28;20030;-61
2023/01/07 03:59:28;;;;;;;3.13;1.10;;;10.40;99.90;;;;;;5024051;28;20253;-62
2023/01/07 04:01:53;;;;;;;3.90;0.93;;;10.50;99.90;;;;;;5016609;28;20037;-61
2023/01/07 04:04:19;;;;;;;2.60;1.00;;;10.50;99.90;;;;;;5018542;28;20033;-61
2023/01/07 04:06:45;;;;;;;3.03;1.20;;;10.60;99.90;;;;;;5024094;28;20038;-61
2023/01/07 04:09:13;;;;;;;2.78;1.10;;;10.50;99.90;;;;;;5022212;28;20583;-62
2023/01/07 04:11:39;;;;;;;4.97;1.05;;;10.60;99.90;;;;;;5022129;28;20832;-61
2023/01/07 04:14:05;;;;;;;3.88;1.13;;;10.60;99.90;;;;;;5024251;28;20025;-61
2023/01/07 04:16:31;;;;;;;4.97;1.25;;;10.60;99.90;;;;;;5021454;28;20029;-62
2023/01/07 04:18:56;;;;;;;2.90;1.05;;;10.60;99.90;;;;;;5023619;28;20141;-61
2023/01/07 04:21:22;;;;;;;3.20;1.20;;;10.50;99.90;;;;;;5002798;28;20038;-61
2023/01/07 04:23:47;;;;;;;2.67;1.27;;;10.60;99.90;;;;;;5023001;28;20040;-61
2023/01/07 04:26:13;;;;;;;2.55;1.17;;;10.60;99.90;;;;;;5004112;28;20056;-61
2023/01/07 04:28:39;;;;;;;2.03;1.02;;;10.40;99.90;;;;;;5020759;28;20040;-62
2023/01/07 04:31:04;;;;;;;3.42;1.30;;;10.30;99.90;;;;;;5022180;28;20030;-59
2023/01/07 04:33:30;;;;;;;2.95;1.20;;;10.40;99.90;;;;;;5023901;28;20056;-60
2023/01/07 04:35:56;;;;;;;1.65;1.20;;;10.40;99.90;;;;;;5022262;28;20034;-59
2023/01/07 04:38:22;;;;;;;5.75;1.60;;;10.60;99.90;;;;;;5019429;28;20344;-58
2023/01/07 04:40:48;;;;;;;4.13;1.38;;;10.60;99.90;;;;;;5021169;28;20042;-59
2023/01/07 04:43:14;;;;;;;2.53;1.30;;;10.60;99.90;;;;;;5023691;28;20405;-58
2023/01/07 04:45:39;;;;;;;5.57;1.38;;;10.40;99.90;;;;;;5022937;28;20056;-58
2023/01/07 04:48:05;;;;;;;4.43;1.45;;;10.50;99.90;;;;;;5028844;28;20033;-59
2023/01/07 04:50:31;;;;;;;3.22;1.30;;;10.30;99.90;;;;;;5024395;28;20072;-58
2023/01/07 04:52:56;;;;;;;3.40;1.30;;;10.40;99.90;;;;;;5043478;28;20037;-59
2023/01/07 04:55:22;;;;;;;2.60;1.50;;;10.40;99.90;;;;;;5045352;28;20036;-59
2023/01/07 04:57:47;;;;;;;3.25;1.40;;;10.30;99.90;;;;;;5046325;28;20033;-59
2023/01/07 05:00:14;;;;;;;1.40;1.17;;;10.30;99.90;;;;;;5045874;28;20071;-59
2023/01/07 05:02:39;;;;;;;2.08;1.30;;;10.30;99.90;;;;;;5045277;28;20527;-59
2023/01/07 05:05:05;;;;;;;4.38;1.30;;;10.30;99.90;;;;;;5045395;28;20033;-59
2023/01/07 05:07:31;;;;;;;2.20;1.40;;;10.30;99.90;;;;;;5045544;28;20444;-59
2023/01/07 05:09:56;;;;;;;1.60;1.35;;;10.20;99.90;;;;;;5043497;28;20036;-58
2023/01/07 05:12:22;;;;;;;2.08;1.35;;;10.10;99.90;;;;;;5043862;28;20032;-59
2023/01/07 05:14:47;;;;;;;2.25;1.50;;;10.00;99.90;;;;;;5045464;28;20041;-60
2023/01/07 05:17:13;;;;;;;1.70;1.35;;;10.10;99.90;;;;;;5045762;28;20121;-60
2023/01/07 05:19:38;;;;;;;3.63;1.45;;;10.10;99.90;;;;;;5046363;28;20076;-59
2023/01/07 05:22:04;;;;;;;3.13;1.38;;;9.90;99.90;;;;;;5046145;28;20041;-58
2023/01/07 05:24:29;;;;;;;2.13;1.48;;;9.90;99.90;;;;;;5046013;28;20070;-59
2023/01/07 05:26:55;;;;;;;2.03;1.35;;;9.90;99.90;;;;;;5044473;28;20033;-59
2023/01/07 05:29:20;;;;;;;3.83;1.80;;;10.00;99.90;;;;;;5046168;28;20039;-59
2023/01/07 05:31:46;;;;;;;2.33;1.58;;;10.00;99.90;;;;;;5045723;28;20039;-59
2023/01/07 05:34:12;;;;;;;1.60;1.40;;;9.90;99.90;;;;;;5042768;28;20064;-59
2023/01/07 05:36:37;;;;;;;3.30;1.90;;;9.90;99.90;;;;;;5045736;28;20037;-59
2023/01/07 05:39:03;;;;;;;3.58;1.65;;;9.90;99.90;;;;;;5044789;28;20032;-59
2023/01/07 05:41:29;;;;;;;3.50;1.80;;;9.80;99.90;;;;;;5046538;28;20395;-59
2023/01/07 05:43:54;;;;;;;2.25;1.55;;;9.80;99.90;;;;;;5046362;28;20036;-59
2023/01/07 05:46:20;;;;;;;3.03;1.50;;;9.70;99.90;;;;;;5045118;28;20043;-59
2023/01/07 05:48:45;;;;;;;2.22;1.60;;;9.70;99.90;;;;;;5046130;28;20036;-58
2023/01/07 05:51:11;;;;;;;2.33;1.40;;;9.70;99.90;;;;;;5045624;28;20036;-59
2023/01/07 05:53:36;;;;;;;4.15;1.60;;;9.60;99.90;;;;;;5047583;28;20029;-59
2023/01/07 05:56:02;;;;;;;3.53;1.73;;;9.60;99.90;;;;;;5047506;28;20089;-58
2023/01/07 05:58:28;;;;;;;2.53;1.70;;;9.60;99.90;;;;;;5027893;28;20064;-59
2023/01/07 06:00:54;;;;;;;4.05;1.83;;;9.60;99.90;;;;;;5042265;28;20045;-59
2023/01/07 06:03:20;;;;;;;5.78;1.90;;;9.60;99.90;;;;;;5046147;28;20025;-59
2023/01/07 06:05:46;;;;;;;3.45;1.60;;;9.60;99.90;;;;;;5046350;28;20078;-59
2023/01/07 06:08:12;;;;;;;2.88;1.75;;;9.50;99.90;;;;;;5045463;28;20361;-59
2023/01/07 06:10:38;;;;;;;3.58;1.80;;;9.50;99.90;;;;;;5046082;28;20032;-59
2023/01/07 06:13:04;;;;;;;4.25;1.92;;;9.50;99.90;;;;;;5045503;28;20021;-59
2023/01/07 06:15:30;;;;;;;2.70;2.05;;;9.40;99.90;;;;;;5045447;28;20037;-59
2023/01/07 06:17:55;;;;;;;2.70;2.10;;;9.30;99.90;;;;;;5045628;28;20219;-58
2023/01/07 06:20:21;;;;;;;4.25;2.10;;;9.40;99.90;;;;;;5043987;28;20072;-59
2023/01/07 06:22:47;;;;;;;5.60;2.25;;;9.40;99.90;;;;;;5045106;28;20037;-60
2023/01/07 06:25:12;;;;;;;3.30;2.00;;;9.40;99.90;;;;;;5045202;28;20031;-59
2023/01/07 06:27:41;;;;;;;4.80;2.20;;;9.40;99.90;;;;;;5044426;28;20045;-59
2023/01/07 06:30:09;;;;;;;3.65;2.10;;;9.40;99.90;;;;;;5043455;28;20084;-59
2023/01/07 06:32:42;;;;;;;5.32;2.35;;;9.40;99.90;;;;;;5045359;28;20028;-58
2023/01/07 06:35:10;;;;;;;4.38;2.53;;;9.40;99.90;;;;;;5044645;28;20119;-59
2023/01/07 06:37:36;;;;;;;6.18;2.83;;;9.50;99.90;;;;;;5044478;28;20396;-59
2023/01/07 06:40:02;;;;;;;6.82;2.67;;;9.50;99.90;;;;;;5042984;28;20535;-59
2023/01/07 06:42:27;;;;;;;3.17;2.08;;;9.40;99.90;;;;;;5044212;28;20276;-59
2023/01/07 06:44:53;;;;;;;4.03;2.47;;;9.40;99.90;;;;;;5046189;28;20057;-59
2023/01/07 06:47:19;;;;;;;5.32;2.65;;;9.40;99.90;;;;;;5045049;28;20494;-59
2023/01/07 06:49:44;;;;;;;5.97;2.40;;;9.50;99.90;;;;;;5045152;28;20048;-58
2023/01/07 06:52:10;;;;;;;3.80;2.47;;;9.60;99.90;;;;;;5044077;28;20080;-59
2023/01/07 06:54:35;;;;;;;4.32;2.25;;;9.60;99.90;;;;;;5044375;28;20126;-59
2023/01/07 06:57:01;;;;;;;2.08;1.85;;;9.70;99.90;;;;;;5043093;28;20025;-59
2023/01/07 06:59:26;;;;;;;3.42;2.22;;;9.70;99.90;;;;;;5043366;28;22080;-58
2023/01/07 07:01:53;;;;;;;4.82;1.77;;;9.70;99.90;;;;;;5044941;28;20041;-58
2023/01/07 07:04:18;;;;;;;3.35;1.90;;;9.80;99.90;;;;;;5044419;28;20028;-59
2023/01/07 07:06:44;;;;;;;3.78;2.00;;;9.90;99.90;;;;;;5042578;28;20830;-58
2023/01/07 07:09:09;;;;;;;3.33;1.90;;;9.90;99.90;;;;;;5029279;28;20056;-60
2023/01/07 07:11:35;;;;;;;5.50;2.17;;;9.90;99.90;;;;;;5039181;28;20033;-59
2023/01/07 07:14:00;;;;;;;2.70;1.73;;;9.90;99.90;;;;;;5027287;28;20034;-59
2023/01/07 07:16:26;;;;;;;4.53;2.08;;;9.90;99.90;;;;;;5021998;28;20037;-59
2023/01/07 07:18:52;;;;;;;3.75;2.10;;;9.90;99.90;;;;;;5024787;28;20033;-59
2023/01/07 07:21:18;;;;;;;2.42;1.90;;;9.90;99.90;;;;;;5023550;28;20041;-59
2023/01/07 07:23:43;;;;;;;6.25;1.85;;;9.90;99.90;;;;;;5025096;28;20030;-58
2023/01/07 07:26:09;;;;;;;3.15;2.30;;;9.90;99.90;;;;;;5022877;28;20035;-58
2023/01/07 07:28:35;;;;;;;7.82;2.40;;;9.90;99.90;;;;;;5021510;28;20035;-59
2023/01/07 07:31:01;;;;;;;6.45;2.40;;;9.90;99.90;;;;;;5026964;28;20404;-59
2023/01/07 07:33:26;;;;;;;2.90;1.98;;;10.00;99.90;;;;;;5026755;28;20025;-59
2023/01/07 07:35:53;;;;;;;3.28;1.73;;;10.00;99.90;;;;;;5044080;28;20032;-59
2023/01/07 07:38:19;;;;;;;4.05;1.80;;;10.00;99.90;;;;;;5038502;28;20388;-59
2023/01/07 07:40:45;;;;;;;4.47;1.90;;;10.10;99.90;;;;;;5044621;28;20033;-59
2023/01/07 07:43:11;;;;;;;2.55;1.60;;;10.00;99.90;;;;;;5044246;28;20041;-59
2023/01/07 07:45:37;;;;;;;5.72;2.10;;;10.10;99.90;;;;;;5043703;28;20458;-59
2023/01/07 07:48:04;;;;;;;4.85;1.95;;;10.20;99.90;;;;;;5025904;28;20399;-59
2023/01/07 07:50:30;;;;;;;3.90;1.58;;;10.20;99.90;;;;;;5025286;28;20642;-59
2023/01/07 07:52:56;;;;;;;4.95;1.98;;;10.20;99.90;;;;;;5043614;28;20060;-58
2023/01/07 07:55:21;;;;;;;4.63;1.88;;;10.20;99.90;;;;;;5043527;28;20040;-58
2023/01/07 07:57:47;;;;;;;3.75;1.80;;;10.20;99.90;;;;;;5042452;28;20400;-59
2023/01/07 08:00:13;;;;;;;1.85;1.30;;;10.30;99.90;;;;;;5041507;28;20631;-59
2023/01/07 08:02:38;;;;;;;2.88;1.77;;;10.30;99.90;;;;;;5044076;28;20033;-58
2023/01/07 08:05:04;;;;;;;5.60;1.70;;;10.30;99.90;;;;;;5043330;28;20040;-60
2023/01/07 08:07:30;;;;;;;3.53;1.80;;;10.30;99.90;;;;;;5043534;28;20104;-59
2023/01/07 08:09:55;;;;;;;4.13;1.65;;;10.40;99.90;;;;;;5042395;28;20148;-59
2023/01/07 08:12:21;;;;;;;3.92;1.80;;;10.30;99.90;;;;;;5041992;28;20037;-59
2023/01/07 08:14:47;;;;;;;2.80;1.63;;;10.20;99.90;;;;;;5042685;28;20053;-59
2023/01/07 08:17:12;;;;;;;3.47;2.10;;;10.30;99.90;;;;;;5042396;28;20874;-59
2023/01/07 08:19:38;;;;;;;3.03;1.75;;;10.40;99.90;;;;;;5042968;28;20049;-59
2023/01/07 08:22:03;;;;;;;4.13;1.70;;;10.40;99.90;;;;;;5040906;28;20566;-59
2023/01/07 08:24:29;;;;;;;4.07;1.90;;;10.50;99.90;;;;;;5043519;28;20029;-59
2023/01/07 08:26:55;;;;;;;3.63;1.70;;;10.50;99.90;;;;;;5041946;28;20055;-59
2023/01/07 08:29:22;;;;;;;3.08;1.73;;;10.50;99.90;;;;;;5043660;28;20033;-59
2023/01/07 08:31:48;;;;;;;2.25;1.40;;;10.40;99.90;;;;;;5047420;28;20119;-58
2023/01/07 08:34:13;;;;;;;3.38;1.70;;;10.30;99.90;;;;;;5045110;28;20487;-58
2023/01/07 08:36:39;;;;;;;2.53;1.42;;;10.40;99.90;;;;;;5046499;28;20039;-59
2023/01/07 08:39:04;;;;;;;2.72;1.25;;;10.30;99.90;;;;;;5046628;28;20025;-59
2023/01/07 08:41:30;;;;;;;2.67;1.42;;;10.30;99.90;;;;;;5045191;28;20078;-59
2023/01/07 08:43:56;;;;;;;1.83;1.20;;;10.30;99.90;;;;;;5046048;28;20032;-60
2023/01/07 08:46:21;;;;;;;1.60;1.20;;;10.40;99.90;;;;;;5046286;28;20128;-60
2023/01/07 08:48:47;;;;;;;1.92;1.30;;;10.40;99.90;;;;;;5046981;28;20592;-60
2023/01/07 08:51:12;;;;;;;2.70;1.20;;;10.40;99.90;;;;;;5050040;28;20017;-58
2023/01/07 08:53:38;;;;;;;3.17;1.13;;;10.50;99.90;;;;;;5053889;28;20404;-59
2023/01/07 08:56:04;;;;;;;3.92;1.52;;;10.50;99.90;;;;;;5055227;28;20044;-59
2023/01/07 08:58:29;;;;;;;2.42;1.20;;;10.60;99.90;;;;;;5056568;28;20630;-59
2023/01/07 09:01:01;;;;;;;3.45;1.60;;;10.70;99.90;;;;;;5052776;28;20037;-59
2023/01/07 09:03:27;;;;;;;4.00;2.33;;;10.60;99.90;;;;;;5049410;28;20123;-58
2023/01/07 09:05:52;;;;;;;3.78;1.70;;;10.60;99.90;;;;;;5048298;28;20411;-59
2023/01/07 09:08:18;;;;;;;3.17;1.80;;;10.70;99.90;;;;;;5051605;28;20033;-61
2023/01/07 09:10:44;;;;;;;3.95;2.10;;;10.70;99.90;;;;;;5049970;28;20028;-61
2023/01/07 09:13:09;;;;;;;6.63;1.90;;;10.70;99.90;;;;;;5051894;28;20033;-61
2023/01/07 09:15:35;;;;;;;2.97;1.50;;;10.70;99.90;;;;;;5042195;28;20404;-62
2023/01/07 09:18:02;;;;;;;4.32;1.60;;;10.70;99.90;;;;;;5033819;28;20959;-62
2023/01/07 09:20:28;;;;;;;4.45;2.40;;;10.80;99.90;;;;;;5041076;28;20517;-62
2023/01/07 09:22:54;;;;;;;5.25;1.70;;;10.80;99.90;;;;;;5045951;28;20108;-62
2023/01/07 09:25:20;;;;;;;3.00;2.20;;;10.80;99.90;;;;;;5045628;28;20136;-62
2023/01/07 09:27:45;;;;;;;3.10;1.85;;;10.90;99.90;;;;;;5043647;28;20032;-62
2023/01/07 09:30:12;;;;;;;2.72;2.10;;;11.00;99.90;;;;;;5045341;28;20044;-62
2023/01/07 09:32:37;;;;;;;3.22;2.50;;;11.00;99.90;;;;;;5046809;28;20040;-62
2023/01/07 09:35:04;;;;;;;3.83;2.40;;;11.00;99.90;;;;;;5045816;28;20158;-63
2023/01/07 09:37:30;;;;;;;2.92;1.60;;;11.00;99.90;;;;;;5045806;28;20025;-64
2023/01/07 09:39:56;;;;;;;3.70;1.83;;;10.90;99.90;;;;;;5043409;28;20052;-64
2023/01/07 09:42:50;;;;;;;3.08;1.83;;;10.90;99.90;;;;;;5044830;28;20037;-64
2023/01/07 09:45:27;;;;;;;2.47;1.73;;;11.00;99.90;;;;;;5044938;28;20037;-64
2023/01/07 09:47:55;;;;;;;4.25;1.63;;;11.00;99.90;;;;;;5048707;28;20090;-64
2023/01/07 09:51:01;;;;;;;4.20;1.90;;;11.00;99.90;;;;;;5043211;28;20090;-64
2023/01/07 09:53:39;;;;;;;3.80;1.90;;;11.10;99.90;;;;;;5042645;28;20040;-64
2023/01/07 09:56:14;;;;;;;5.13;2.00;;;11.10;99.90;;;;;;5043791;28;20036;-64
2023/01/07 09:58:42;;;;;;;2.08;1.40;;;11.10;99.90;;;;;;5045031;28;20045;-64
2023/01/07 10:01:19;;;;;;;2.92;1.65;;;11.30;99.90;;;;;;5043864;28;20036;-64
2023/01/07 10:04:19;;;;;;;2.33;1.67;;;11.30;99.90;;;;;;5046216;28;20804;-64
2023/01/07 10:07:03;;;;;;;3.05;1.85;;;11.30;99.90;;;;;;5031715;28;20526;-63
2023/01/07 10:09:40;;;;;;;3.33;2.15;;;11.30;99.90;;;;;;5044811;28;20037;-64
2023/01/07 10:12:39;;;;;;;3.25;1.45;;;11.20;99.90;;;;;;5042405;28;20037;-64
2023/01/07 10:15:20;;;;;;;4.47;1.40;;;11.30;99.90;;;;;;5045439;28;20033;-64
2023/01/07 10:17:57;;;;;;;5.22;1.83;;;11.30;99.90;;;;;;5045760;28;20587;-64
2023/01/07 10:20:44;;;;;;;5.57;1.80;;;11.30;99.90;;;;;;5040980;28;20358;-64
2023/01/07 10:23:22;;;;;;;4.45;1.70;;;11.30;99.90;;;;;;5038736;28;20055;-64
2023/01/07 10:25:51;;;;;;;3.90;2.20;;;11.30;99.90;;;;;;5040324;28;20351;-63
2023/01/07 10:28:36;;;;;;;2.90;1.85;;;11.30;99.90;;;;;;5045267;28;20124;-64
2023/01/07 10:31:04;;;;;;;2.72;1.48;;;11.30;99.90;;;;;;5043725;28;20511;-63
2023/01/07 10:33:32;;;;;;;1.88;1.60;;;11.30;99.90;;;;;;5045012;28;20056;-64
2023/01/07 10:36:24;;;;;;;2.78;1.50;;;11.40;99.90;;;;;;5043113;28;20470;-64
2023/01/07 10:39:18;;;;;;;3.35;1.50;;;11.40;99.90;;;;;;5029763;28;20500;-63
2023/01/07 10:42:30;;;;;;;2.40;1.30;;;11.40;99.90;;;;;;5030203;28;20044;-63
2023/01/07 10:44:55;;;;;;;12.20;7.50;;;11.40;99.90;;;;;;5043087;28;20186;-64
2023/01/07 10:47:37;;;;;;;5.30;2.72;;;11.40;99.90;;;;;;5046491;28;20486;-64
2023/01/07 10:50:30;;;;;;;1.85;1.40;;;11.40;99.90;;;;;;5025767;28;20064;-64
2023/01/07 10:53:11;;;;;;;2.47;1.50;;;11.50;99.90;;;;;;5042159;28;20112;-64
2023/01/07 10:56:00;;;;;;;2.17;1.33;;;11.50;99.90;;;;;;5041111;28;20384;-64
2023/01/07 10:58:39;;;;;;;1.52;1.20;;;11.50;99.90;;;;;;5041864;28;20108;-64
2023/01/07 11:01:06;;;;;;;2.30;1.15;;;11.50;99.90;;;;;;5043565;28;20052;-63
2023/01/07 11:03:32;;;;;;;4.40;1.38;;;11.50;99.90;;;;;;5043724;28;20032;-64
2023/01/07 11:06:03;;;;;;;3.33;1.10;;;11.50;99.90;;;;;;5044002;28;20136;-64
2023/01/07 11:08:37;;;;;;;5.60;1.50;;;11.40;99.90;;;;;;5024107;28;20061;-64
2023/01/07 11:11:05;;;;;;;2.55;1.25;;;11.50;99.90;;;;;;5020838;28;20044;-63
2023/01/07 11:13:34;;;;;;;2.53;1.27;;;11.50;99.90;;;;;;5024658;28;20106;-63
2023/01/07 11:16:08;;;;;;;3.10;1.50;;;11.50;99.90;;;;;;5021606;28;20377;-64
2023/01/07 11:19:04;;;;;;;2.20;1.23;;;11.50;99.90;;;;;;5040258;28;20029;-64
2023/01/07 11:21:43;;;;;;;1.85;1.60;;;11.50;99.90;;;;;;5032193;28;20041;-63
2023/01/07 11:24:29;;;;;;;1.63;1.13;;;11.50;99.90;;;;;;5017693;28;20080;-63
2023/01/07 11:27:16;;;;;;;2.47;1.45;;;11.50;99.90;;;;;;5025728;28;20017;-63
2023/01/07 11:29:46;;;;;;;2.17;1.45;;;11.50;99.90;;;;;;5044212;28;20044;-63
2023/01/07 11:32:24;;;;;;;2.78;1.48;;;11.50;99.90;;;;;;5043178;28;20558;-63
2023/01/07 11:34:55;;;;;;;1.98;1.60;;;11.50;99.90;;;;;;5041284;28;20079;-63
2023/01/07 11:37:39;;;;;;;2.95;1.60;;;11.50;99.90;;;;;;5043456;28;20040;-64
2023/01/07 11:40:14;;;;;;;2.40;1.60;;;11.60;99.90;;;;;;5039343;28;20037;-63
2023/01/07 11:42:50;;;;;;;3.10;1.73;;;11.50;99.90;;;;;;5040232;28;20041;-63
2023/01/07 11:45:24;;;;;;;3.17;1.80;;;11.50;99.90;;;;;;5039422;28;20029;-63
2023/01/07 11:47:59;;;;;;;3.22;1.73;;;11.60;99.90;;;;;;5022005;28;20043;-63
2023/01/07 11:50:28;;;;;;;7.30;2.45;;;11.60;99.90;;;;;;5021331;28;20068;-63
2023/01/07 11:52:56;;;;;;;2.15;1.92;;;11.70;99.90;;;;;;5024187;28;20034;-63
2023/01/07 11:55:22;;;;;;;4.32;2.65;;;11.70;99.90;;;;;;5022453;28;20038;-63
2023/01/07 11:57:55;;;;;;;3.63;2.25;;;11.70;99.90;;;;;;5022472;28;20639;-63
2023/01/07 12:00:22;;;;;;;5.07;2.20;;;11.80;99.90;;;;;;5019705;28;20029;-63
2023/01/07 12:03:10;;;;;;;5.20;2.75;;;11.70;99.90;;;;;;5020582;28;20032;-63
2023/01/07 12:05:37;;;;;;;2.03;1.60;;;11.70;99.90;;;;;;5042694;28;20021;-63
2023/01/07 12:08:04;;;;;;;3.65;2.00;;;11.80;99.90;;;;;;5043418;28;20055;-63
2023/01/07 12:10:36;;;;;;;2.58;1.83;;;11.80;99.90;;;;;;5040852;28;20052;-62
2023/01/07 12:13:04;;;;;;;13.27;9.55;;;11.70;99.90;;;;;;5041940;28;20477;-56
2023/01/07 12:15:37;;;;;;;3.00;1.92;;;11.80;99.90;;;;;;5024340;28;20117;-59
2023/01/07 12:18:06;;;;;;;3.45;1.70;;;11.80;99.90;;;;;;5042311;28;20040;-58
2023/01/07 12:20:50;;;;;;;2.78;1.98;;;11.80;99.90;;;;;;5045335;28;20496;-59
2023/01/07 12:23:16;;;;;;;4.28;1.80;;;11.80;99.90;;;;;;5044231;28;20469;-59
2023/01/07 12:25:51;;;;;;;3.78;1.80;;;11.80;99.90;;;;;;5038540;28;20033;-59
2023/01/07 12:28:22;;;;;;;3.08;1.42;;;11.80;99.90;;;;;;5043382;28;20029;-58
2023/01/07 12:31:06;;;;;;;3.85;1.60;;;11.80;99.90;;;;;;5042700;28;20029;-58
2023/01/07 12:34:19;;;;;;;5.75;1.80;;;11.80;99.90;;;;;;5040604;28;20441;-56
2023/01/07 12:36:55;;;;;;;4.77;2.63;;;12.00;99.90;;;;;;4958925;28;20035;-59
2023/01/07 12:39:29;;;;;;;1.73;1.40;;;12.00;99.90;;;;;;5033697;28;20037;-58
2023/01/07 12:42:03;;;;;;;2.40;1.40;;;12.00;99.90;;;;;;5040650;28;20033;-57
2023/01/07 12:44:29;;;;;;;2.05;1.40;;;12.00;99.90;;;;;;5043328;28;20107;-58
2023/01/07 12:47:06;;;;;;;1.52;1.05;;;12.00;99.90;;;;;;5041409;28;20505;-57
2023/01/07 12:49:44;;;;;;;2.58;1.25;;;12.00;99.90;;;;;;5031661;28;20025;-57
2023/01/07 12:52:20;;;;;;;1.92;1.10;;;12.00;99.90;;;;;;5044081;28;20124;-55
2023/01/07 12:54:58;;;;;;;1.70;1.00;;;11.90;99.90;;;;;;5041470;28;20037;-57
2023/01/07 12:57:40;;;;;;;3.13;1.10;;;11.90;99.90;;;;;;5044407;28;20628;-57
2023/01/07 13:00:22;;;;;;;1.38;1.10;;;11.90;99.90;;;;;;5026533;28;20488;-56
2023/01/07 13:02:53;;;;;;;2.45;1.20;;;11.90;99.90;;;;;;5040291;28;20034;-55
2023/01/07 13:05:42;;;;;;;2.47;1.20;;;11.90;99.90;;;;;;5042267;28;20753;-57
2023/01/07 13:08:10;;;;;;;1.60;1.10;;;11.90;99.90;;;;;;5040581;28;20037;-56